Time;durP1;ratioP1;P1;durP2;ratioP2;P2;SDS_P1;SDS_P2;PMS_P1;PMS_P2;Temp;Humidity;BMP_temperature;BMP_pressure;BME280_temperature;BME280_humidity;BME280_pressure;Samples;Min_cycle;Max_cycle;Signal;HPM_P1;HPM_P2
2022/05/10 00:01:33;;;;;;;11.05;8.02;;;12.50;99.90;;;;;;5047260;28;20570;-81
2022/05/10 00:04:00;;;;;;;10.93;8.40;;;12.60;99.90;;;;;;5048335;28;20407;-81
2022/05/10 00:06:29;;;;;;;13.23;8.00;;;12.60;99.90;;;;;;5064310;28;20103;-81
2022/05/10 00:08:55;;;;;;;10.75;7.88;;;12.60;99.90;;;;;;5028360;28;20048;-82
2022/05/10 00:11:21;;;;;;;11.65;8.40;;;12.60;99.90;;;;;;5064228;28;20057;-82
2022/05/10 00:13:47;;;;;;;12.48;8.82;;;12.60;99.90;;;;;;5046786;28;20178;-79
2022/05/10 00:16:15;;;;;;;12.80;8.68;;;12.60;99.90;;;;;;5081209;28;20047;-80
2022/05/10 00:18:42;;;;;;;10.27;7.85;;;12.60;99.90;;;;;;5044101;28;20088;-79
2022/05/10 00:21:10;;;;;;;11.93;9.00;;;12.60;99.90;;;;;;5031583;28;20056;-80
2022/05/10 00:23:36;;;;;;;12.32;8.65;;;12.60;99.90;;;;;;5047898;28;20049;-80
2022/05/10 00:26:02;;;;;;;11.35;7.70;;;12.60;99.90;;;;;;5032410;28;20391;-80
2022/05/10 00:28:27;;;;;;;12.48;8.75;;;12.60;99.90;;;;;;5023112;28;20056;-81
2022/05/10 00:30:53;;;;;;;12.43;8.20;;;12.60;99.90;;;;;;5007740;28;20226;-79
2022/05/10 00:33:28;;;;;;;9.25;7.75;;;12.70;99.90;;;;;;5049796;28;20462;-81
2022/05/10 00:35:55;;;;;;;12.43;7.68;;;12.70;99.90;;;;;;5086810;28;20056;-81
2022/05/10 00:38:24;;;;;;;9.88;8.23;;;12.70;99.90;;;;;;5025248;28;20049;-77
2022/05/10 00:40:50;;;;;;;11.35;8.63;;;12.70;99.90;;;;;;5024340;28;20382;-81
2022/05/10 00:43:28;;;;;;;14.70;9.07;;;12.70;99.90;;;;;;5031000;28;20186;-82
2022/05/10 00:45:57;;;;;;;11.50;8.80;;;12.70;99.90;;;;;;5023328;28;20475;-82
2022/05/10 00:48:44;;;;;;;15.77;8.57;;;12.80;99.90;;;;;;5029493;28;20056;-78
2022/05/10 00:51:40;;;;;;;11.77;8.10;;;12.80;99.90;;;;;;5031948;28;20056;-81
2022/05/10 00:55:01;;;;;;;12.00;8.02;;;12.80;99.90;;;;;;5024286;28;20086;-79
2022/05/10 00:57:42;;;;;;;12.15;7.93;;;12.80;99.90;;;;;;5022327;28;20457;-79
2022/05/10 01:00:20;;;;;;;11.98;9.07;;;12.90;99.90;;;;;;5043211;28;20522;-81
2022/05/10 01:02:46;;;;;;;11.35;8.73;;;12.90;99.90;;;;;;5022329;28;20052;-81
2022/05/10 01:05:16;;;;;;;10.05;8.68;;;12.90;99.90;;;;;;5028861;28;20049;-79
2022/05/10 01:07:54;;;;;;;16.80;9.32;;;13.00;99.90;;;;;;5079999;28;20049;-81
2022/05/10 01:10:36;;;;;;;12.63;8.50;;;13.00;99.90;;;;;;5029405;28;20106;-81
2022/05/10 01:13:39;;;;;;;12.13;8.45;;;13.10;99.90;;;;;;5040581;28;20049;-81
2022/05/10 01:16:17;;;;;;;11.98;8.38;;;13.00;99.90;;;;;;5046201;28;20068;-76
2022/05/10 01:18:44;;;;;;;11.93;8.57;;;13.00;99.90;;;;;;5044917;28;20242;-81
2022/05/10 01:21:28;;;;;;;12.30;8.25;;;13.00;99.90;;;;;;5040188;28;20041;-81
2022/05/10 01:24:00;;;;;;;13.35;9.20;;;13.10;99.90;;;;;;5078380;28;20144;-81
2022/05/10 01:26:43;;;;;;;12.18;8.05;;;13.10;99.90;;;;;;5031323;28;20110;-80
2022/05/10 01:29:16;;;;;;;10.32;8.20;;;13.10;99.90;;;;;;5023224;28;20088;-80
2022/05/10 01:34:42;;;;;;;10.95;8.80;;;13.20;99.90;;;;;;5034060;28;20140;-82
2022/05/10 01:37:12;;;;;;;12.65;9.00;;;13.30;99.90;;;;;;5022956;28;20080;-80
2022/05/10 01:39:47;;;;;;;11.80;8.15;;;13.30;99.90;;;;;;5062476;28;20052;-77
2022/05/10 01:42:22;;;;;;;12.98;9.15;;;13.40;99.90;;;;;;5030279;28;20056;-80
2022/05/10 01:45:10;;;;;;;14.52;9.35;;;13.40;99.90;;;;;;5045201;28;20132;-79
2022/05/10 01:47:41;;;;;;;13.23;9.32;;;13.40;99.90;;;;;;5022245;28;20073;-80
2022/05/10 01:50:21;;;;;;;10.82;7.93;;;13.40;99.90;;;;;;5040433;28;20060;-81
2022/05/10 01:53:02;;;;;;;10.57;8.13;;;13.50;99.90;;;;;;5037918;28;20053;-81
2022/05/10 01:56:03;;;;;;;11.15;7.18;;;13.50;99.90;;;;;;5030945;28;20131;-79
2022/05/10 01:58:32;;;;;;;14.00;8.35;;;13.40;99.90;;;;;;5049651;28;20053;-81
2022/05/10 02:01:31;;;;;;;11.27;8.75;;;13.50;99.90;;;;;;5044949;28;20083;-82
2022/05/10 02:04:06;;;;;;;10.60;7.75;;;13.50;99.90;;;;;;5046328;28;20068;-81
2022/05/10 02:06:38;;;;;;;9.05;7.47;;;13.50;99.90;;;;;;5043013;28;20116;-81
2022/05/10 02:09:13;;;;;;;10.00;8.68;;;13.50;99.90;;;;;;5033782;28;20186;-82
2022/05/10 02:11:44;;;;;;;12.27;9.73;;;13.50;99.90;;;;;;5084100;28;20047;-82
2022/05/10 02:14:10;;;;;;;13.23;8.80;;;13.60;99.90;;;;;;5064117;28;20052;-80
2022/05/10 02:16:44;;;;;;;10.10;8.40;;;13.60;99.90;;;;;;5051118;28;20049;-81
2022/05/10 02:19:20;;;;;;;11.50;8.65;;;13.60;99.90;;;;;;5066344;28;20084;-76
2022/05/10 02:22:01;;;;;;;10.90;8.77;;;13.60;99.90;;;;;;5048499;28;20056;-80
2022/05/10 02:24:44;;;;;;;14.00;8.85;;;13.60;99.90;;;;;;5049656;28;20064;-82
2022/05/10 02:27:20;;;;;;;10.60;8.18;;;13.70;99.90;;;;;;5050500;28;20080;-78
2022/05/10 02:30:10;;;;;;;12.32;8.65;;;13.70;99.90;;;;;;5049056;28;20100;-82
2022/05/10 02:33:06;;;;;;;10.30;8.25;;;13.60;99.90;;;;;;5031758;28;20057;-81
2022/05/10 02:35:46;;;;;;;12.07;9.48;;;13.60;99.90;;;;;;5065391;28;20498;-81
2022/05/10 02:38:15;;;;;;;11.95;8.57;;;13.60;99.90;;;;;;5025556;28;20052;-80
2022/05/10 02:40:43;;;;;;;12.13;9.25;;;13.60;99.90;;;;;;5066380;28;20056;-81
2022/05/10 02:43:22;;;;;;;13.85;9.23;;;13.50;99.90;;;;;;5031882;28;20135;-81
2022/05/10 02:45:48;;;;;;;12.52;8.75;;;13.50;99.90;;;;;;5031952;28;20394;-82
2022/05/10 02:48:27;;;;;;;12.45;9.10;;;13.50;99.90;;;;;;5033785;28;20067;-80
2022/05/10 02:50:53;;;;;;;12.35;8.90;;;13.50;99.90;;;;;;5049549;28;20053;-81
2022/05/10 02:53:19;;;;;;;10.57;8.95;;;13.50;99.90;;;;;;5033072;28;20057;-82
2022/05/10 02:56:18;;;;;;;10.93;8.00;;;13.50;99.90;;;;;;5048708;28;20135;-82
2022/05/10 02:59:06;;;;;;;11.90;9.23;;;13.40;99.90;;;;;;5049107;28;20065;-80
2022/05/10 03:01:53;;;;;;;14.77;9.40;;;13.50;99.90;;;;;;5050633;28;20064;-80
2022/05/10 03:04:19;;;;;;;12.18;8.57;;;13.50;99.90;;;;;;5049982;28;20048;-81
2022/05/10 03:06:46;;;;;;;12.95;9.27;;;13.50;99.90;;;;;;5066224;28;20049;-80
2022/05/10 03:09:13;;;;;;;11.43;8.93;;;13.50;99.90;;;;;;5023369;28;20072;-82
2022/05/10 03:11:39;;;;;;;11.73;9.30;;;13.40;99.90;;;;;;5066507;28;20091;-78
2022/05/10 03:14:07;;;;;;;14.70;8.50;;;13.40;99.90;;;;;;5080709;28;20106;-79
2022/05/10 03:16:34;;;;;;;12.30;8.60;;;13.40;99.90;;;;;;5048156;28;20060;-80
2022/05/10 03:19:00;;;;;;;12.07;8.85;;;13.40;99.90;;;;;;5006880;28;20147;-78
2022/05/10 03:21:25;;;;;;;12.20;9.27;;;13.40;99.90;;;;;;5048517;28;20048;-81
2022/05/10 03:23:52;;;;;;;11.98;8.90;;;13.40;99.90;;;;;;5031590;28;20045;-81
2022/05/10 03:26:23;;;;;;;11.32;8.70;;;13.50;99.90;;;;;;5025769;28;20514;-81
2022/05/10 03:28:49;;;;;;;10.57;8.23;;;13.50;99.90;;;;;;5033402;28;20105;-81
2022/05/10 03:31:19;;;;;;;12.30;8.23;;;13.50;99.90;;;;;;5065163;28;20045;-80
2022/05/10 03:33:45;;;;;;;11.82;8.88;;;13.50;99.90;;;;;;5010079;28;20368;-80
2022/05/10 03:36:11;;;;;;;10.88;7.97;;;13.60;99.90;;;;;;5025919;28;20114;-80
2022/05/10 03:38:36;;;;;;;12.27;8.20;;;13.60;99.90;;;;;;5008935;28;20049;-78
2022/05/10 03:41:05;;;;;;;10.55;8.25;;;13.60;99.90;;;;;;5048212;28;20102;-80
2022/05/10 03:43:31;;;;;;;10.57;8.23;;;13.60;99.90;;;;;;5031275;28;20048;-76
2022/05/10 03:45:57;;;;;;;13.35;8.45;;;13.70;99.90;;;;;;5047065;28;20048;-81
2022/05/10 03:48:23;;;;;;;9.73;7.78;;;13.70;99.90;;;;;;5049781;28;20498;-79
2022/05/10 03:50:49;;;;;;;10.98;7.53;;;13.70;99.90;;;;;;5047854;28;20098;-80
2022/05/10 03:53:14;;;;;;;11.57;7.88;;;13.80;99.90;;;;;;5048630;28;20075;-80
2022/05/10 03:55:40;;;;;;;11.45;7.15;;;13.80;99.90;;;;;;5049090;28;20037;-81
2022/05/10 03:58:06;;;;;;;13.90;8.13;;;13.90;99.90;;;;;;5048549;28;20452;-80
2022/05/10 04:00:32;;;;;;;9.70;7.53;;;13.80;99.90;;;;;;5065492;28;20047;-80
2022/05/10 04:02:59;;;;;;;10.35;7.68;;;13.90;99.90;;;;;;5027221;28;20075;-81
2022/05/10 04:05:26;;;;;;;12.30;7.47;;;13.90;99.90;;;;;;5047748;28;20048;-80
2022/05/10 04:07:53;;;;;;;10.55;7.57;;;13.90;99.90;;;;;;5027786;28;20044;-81
2022/05/10 04:10:20;;;;;;;12.50;9.10;;;13.90;99.90;;;;;;5046728;28;20084;-80
2022/05/10 04:12:46;;;;;;;12.02;8.45;;;14.00;99.90;;;;;;5080730;28;20506;-80
2022/05/10 04:15:15;;;;;;;11.90;8.00;;;14.00;99.90;;;;;;5024366;28;20063;-82
2022/05/10 04:17:44;;;;;;;9.95;7.88;;;14.00;99.90;;;;;;5030477;28;20132;-80
2022/05/10 04:20:13;;;;;;;11.68;7.57;;;14.00;99.90;;;;;;5013782;28;20475;-79
2022/05/10 04:22:38;;;;;;;13.13;8.65;;;14.00;99.90;;;;;;5031365;28;20049;-80
2022/05/10 04:25:05;;;;;;;12.75;8.90;;;14.10;99.90;;;;;;5022228;28;20121;-76
2022/05/10 04:27:31;;;;;;;12.70;8.45;;;14.10;99.90;;;;;;5081049;28;20049;-80
2022/05/10 04:29:57;;;;;;;9.95;8.48;;;14.10;99.90;;;;;;5046179;28;20079;-77
2022/05/10 04:32:22;;;;;;;12.38;8.32;;;14.10;99.90;;;;;;5064564;28;20447;-80
2022/05/10 04:34:48;;;;;;;11.48;8.30;;;14.20;99.90;;;;;;5064090;28;20049;-79
2022/05/10 04:37:15;;;;;;;10.05;8.00;;;14.20;99.90;;;;;;5045349;28;20583;-80
2022/05/10 04:42:24;;;;;;;10.73;8.00;;;14.20;99.90;;;;;;5080331;28;20060;-80
2022/05/10 04:44:50;;;;;;;14.15;8.57;;;14.20;99.90;;;;;;5049097;28;20128;-80
2022/05/10 04:47:16;;;;;;;10.38;7.43;;;14.30;99.90;;;;;;5029387;28;20132;-80
2022/05/10 04:49:42;;;;;;;12.82;8.35;;;14.30;99.90;;;;;;5031483;28;20049;-81
2022/05/10 04:52:10;;;;;;;11.00;7.97;;;14.30;99.90;;;;;;5029468;28;20060;-81
2022/05/10 04:54:36;;;;;;;9.32;8.05;;;14.30;99.90;;;;;;5062633;28;20544;-80
2022/05/10 04:57:03;;;;;;;12.60;8.35;;;14.40;99.90;;;;;;5061059;28;20045;-81
2022/05/10 04:59:29;;;;;;;11.02;8.10;;;14.40;99.90;;;;;;5047473;28;20509;-79
2022/05/10 05:01:54;;;;;;;11.70;8.77;;;14.40;99.90;;;;;;5047286;28;20071;-81
2022/05/10 05:04:20;;;;;;;11.38;8.50;;;14.50;99.90;;;;;;5046470;28;20056;-81
2022/05/10 05:06:46;;;;;;;11.40;8.05;;;14.50;99.90;;;;;;5079209;28;20521;-81
2022/05/10 05:09:11;;;;;;;10.95;7.80;;;14.50;99.90;;;;;;5063727;28;20391;-82
2022/05/10 05:11:37;;;;;;;11.45;7.93;;;14.50;99.90;;;;;;5028902;28;20045;-82
2022/05/10 05:14:03;;;;;;;13.13;8.10;;;14.60;99.90;;;;;;5046733;28;20156;-81
2022/05/10 05:16:29;;;;;;;9.82;7.35;;;14.60;99.90;;;;;;5045686;28;20049;-82
2022/05/10 05:18:54;;;;;;;12.18;8.02;;;14.60;99.90;;;;;;5062612;28;20143;-81
2022/05/10 05:21:20;;;;;;;9.93;7.82;;;14.70;99.90;;;;;;5015171;28;20048;-80
2022/05/10 05:23:46;;;;;;;11.43;7.88;;;14.70;99.90;;;;;;5031299;28;20041;-79
2022/05/10 05:26:12;;;;;;;11.80;7.90;;;14.80;99.90;;;;;;5063359;28;20083;-81
2022/05/10 05:28:38;;;;;;;10.23;7.18;;;14.80;99.90;;;;;;5026193;28;20106;-76
2022/05/10 05:31:05;;;;;;;10.77;7.93;;;14.80;99.90;;;;;;5029238;28;20056;-79
2022/05/10 05:33:31;;;;;;;11.80;6.95;;;14.90;99.90;;;;;;5037458;28;20056;-81
2022/05/10 05:35:57;;;;;;;10.93;7.28;;;15.00;99.90;;;;;;5048496;28;20052;-81
2022/05/10 05:38:24;;;;;;;9.25;6.80;;;15.00;99.90;;;;;;5031467;28;20662;-78
2022/05/10 05:40:50;;;;;;;10.48;7.13;;;15.10;99.90;;;;;;5081392;28;20052;-80
2022/05/10 05:43:20;;;;;;;12.32;7.38;;;15.10;99.90;;;;;;5022296;28;20076;-78
2022/05/10 05:45:47;;;;;;;11.27;6.10;;;15.20;99.90;;;;;;5042530;28;20076;-78
2022/05/10 05:48:13;;;;;;;10.07;6.72;;;15.30;99.90;;;;;;5050117;28;20077;-80
2022/05/10 05:50:39;;;;;;;8.50;6.22;;;15.30;99.90;;;;;;5048455;28;20106;-77
2022/05/10 05:53:05;;;;;;;9.65;6.13;;;15.40;99.90;;;;;;5022080;28;20049;-79
2022/05/10 05:55:31;;;;;;;7.85;5.90;;;15.40;99.90;;;;;;5047404;28;20059;-76
2022/05/10 05:57:57;;;;;;;10.48;5.82;;;15.50;99.90;;;;;;5030343;28;20087;-79
2022/05/10 06:00:25;;;;;;;7.28;6.05;;;15.60;99.90;;;;;;5046629;28;20053;-79
2022/05/10 06:02:51;;;;;;;7.45;5.95;;;15.60;99.90;;;;;;5040308;28;20893;-78
2022/05/10 06:05:18;;;;;;;9.98;6.15;;;15.70;99.90;;;;;;5030197;28;20148;-81
2022/05/10 06:07:44;;;;;;;6.90;5.57;;;15.80;99.90;;;;;;5030918;28;20053;-76
2022/05/10 06:10:11;;;;;;;8.02;5.63;;;15.80;99.90;;;;;;5027056;28;20063;-78
2022/05/10 06:12:38;;;;;;;8.15;4.88;;;15.90;99.90;;;;;;5021718;28;20122;-80
2022/05/10 06:15:09;;;;;;;6.70;5.30;;;15.90;99.90;;;;;;5047117;28;20067;-74
2022/05/10 06:17:37;;;;;;;9.13;5.45;;;15.90;99.90;;;;;;5047714;28;20055;-78
2022/05/10 06:20:04;;;;;;;7.75;5.38;;;15.90;99.90;;;;;;5061673;28;20084;-77
2022/05/10 06:22:30;;;;;;;10.23;5.22;;;15.90;99.90;;;;;;5046271;28;20055;-75
2022/05/10 06:24:56;;;;;;;8.10;5.93;;;15.90;99.90;;;;;;5064613;28;20049;-75
2022/05/10 06:27:21;;;;;;;7.53;5.70;;;15.90;99.90;;;;;;5029688;28;20038;-79
2022/05/10 06:29:49;;;;;;;7.18;5.65;;;16.00;99.90;;;;;;5030291;28;20065;-78
2022/05/10 06:32:24;;;;;;;7.75;5.80;;;16.00;99.90;;;;;;5022740;28;20045;-78
2022/05/10 06:34:50;;;;;;;6.50;5.47;;;16.00;99.90;;;;;;5080338;28;20494;-78
2022/05/10 06:40:14;;;;;;;7.60;5.70;;;16.00;99.90;;;;;;5047010;28;20136;-79
2022/05/10 06:42:40;;;;;;;9.73;5.80;;;16.00;99.90;;;;;;5046045;28;20056;-74
2022/05/10 06:45:10;;;;;;;10.85;5.97;;;16.00;99.90;;;;;;5049995;28;20041;-77
2022/05/10 06:47:38;;;;;;;8.85;5.90;;;16.00;99.90;;;;;;5050036;28;20116;-79
2022/05/10 06:50:06;;;;;;;8.85;5.82;;;16.00;99.90;;;;;;5050121;28;20082;-80
2022/05/10 06:52:32;;;;;;;11.15;6.20;;;16.00;99.90;;;;;;5082372;28;20180;-80
2022/05/10 06:54:57;;;;;;;9.10;6.25;;;16.00;99.90;;;;;;5033710;28;20124;-80
2022/05/10 06:57:23;;;;;;;8.27;5.75;;;16.00;99.90;;;;;;5033215;28;20833;-79
2022/05/10 06:59:49;;;;;;;8.23;6.32;;;16.00;99.90;;;;;;5050423;28;20040;-78
2022/05/10 07:02:15;;;;;;;9.00;6.28;;;16.00;99.90;;;;;;5031501;28;20570;-78
2022/05/10 07:04:40;;;;;;;10.38;6.97;;;16.00;99.90;;;;;;5066926;28;20513;-79
2022/05/10 07:07:06;;;;;;;11.45;6.65;;;16.00;99.90;;;;;;5049325;28;20048;-77
2022/05/10 07:09:32;;;;;;;9.82;6.35;;;16.00;99.90;;;;;;5065801;28;20053;-77
2022/05/10 07:11:57;;;;;;;9.85;6.97;;;16.10;99.90;;;;;;5032430;28;20048;-77
2022/05/10 07:14:23;;;;;;;11.88;7.60;;;16.20;99.90;;;;;;5031396;28;20144;-76
2022/05/10 07:16:49;;;;;;;10.70;6.18;;;16.20;99.90;;;;;;5067765;28;20127;-77
2022/05/10 07:19:14;;;;;;;9.82;6.53;;;16.30;99.90;;;;;;5050305;28;20510;-77
2022/05/10 07:21:40;;;;;;;10.20;6.80;;;16.40;99.90;;;;;;5068592;28;20049;-78
2022/05/10 07:24:06;;;;;;;10.52;6.60;;;16.40;99.90;;;;;;5048721;28;20045;-80
2022/05/10 07:26:32;;;;;;;9.10;6.10;;;16.50;99.90;;;;;;5050262;28;20144;-77
2022/05/10 07:28:58;;;;;;;8.48;6.32;;;16.60;99.90;;;;;;5027965;28;20056;-78
2022/05/10 07:31:23;;;;;;;11.18;6.88;;;16.70;99.90;;;;;;5032186;28;20068;-78
2022/05/10 07:33:49;;;;;;;12.48;6.35;;;16.80;99.90;;;;;;5052983;28;20044;-76
2022/05/10 07:36:24;;;;;;;7.78;6.38;;;16.90;99.90;;;;;;5051670;28;20052;-74
2022/05/10 07:38:50;;;;;;;12.68;6.32;;;16.90;99.90;;;;;;5067635;28;20560;-76
2022/05/10 07:41:21;;;;;;;8.15;5.90;;;17.00;99.90;;;;;;5031588;28;20049;-76
2022/05/10 07:43:47;;;;;;;8.27;5.95;;;17.10;99.90;;;;;;5048749;28;20057;-74
2022/05/10 07:46:13;;;;;;;9.88;6.28;;;17.20;99.90;;;;;;5049350;28;20049;-78
2022/05/10 07:48:39;;;;;;;8.82;6.28;;;17.40;99.90;;;;;;5032939;28;20520;-78
2022/05/10 07:51:06;;;;;;;9.40;5.78;;;17.50;99.90;;;;;;5049667;28;20558;-74
2022/05/10 07:53:32;;;;;;;10.45;6.22;;;17.60;99.90;;;;;;5024255;28;20053;-77
2022/05/10 07:55:59;;;;;;;10.68;5.88;;;17.70;99.90;;;;;;5047593;28;20139;-77
2022/05/10 07:58:25;;;;;;;9.77;5.40;;;17.80;99.90;;;;;;5024802;28;20081;-78
2022/05/10 08:00:51;;;;;;;8.60;6.05;;;17.80;99.90;;;;;;5033044;28;20048;-74
2022/05/10 08:03:20;;;;;;;8.27;5.88;;;17.90;99.90;;;;;;5032328;28;20056;-77
2022/05/10 08:05:46;;;;;;;11.25;6.32;;;18.00;99.90;;;;;;5041358;28;20051;-77
2022/05/10 08:08:13;;;;;;;9.55;6.22;;;18.00;99.90;;;;;;5081449;28;20500;-76
2022/05/10 08:10:41;;;;;;;10.07;5.97;;;18.10;99.90;;;;;;5025038;28;20551;-77
2022/05/10 08:13:14;;;;;;;9.50;6.47;;;18.20;99.90;;;;;;5047724;28;20601;-80
2022/05/10 08:15:40;;;;;;;10.20;6.50;;;18.30;99.90;;;;;;5050146;28;20041;-79
2022/05/10 08:18:07;;;;;;;9.68;6.60;;;18.40;99.90;;;;;;5066203;28;20061;-81
2022/05/10 08:20:33;;;;;;;9.20;6.30;;;18.60;99.90;;;;;;5032732;28;20041;-78
2022/05/10 08:22:58;;;;;;;8.13;6.13;;;18.80;99.90;;;;;;5049004;28;20049;-80
2022/05/10 08:25:24;;;;;;;9.00;6.28;;;18.90;99.90;;;;;;5048315;28;20139;-80
2022/05/10 08:27:50;;;;;;;8.82;5.63;;;19.00;99.90;;;;;;5012255;28;20068;-76
2022/05/10 08:30:15;;;;;;;10.25;6.57;;;19.10;99.90;;;;;;5032182;28;20060;-80
2022/05/10 08:32:42;;;;;;;9.02;6.30;;;19.20;99.90;;;;;;5044578;28;20059;-81
2022/05/10 08:35:09;;;;;;;9.10;5.97;;;19.20;99.90;;;;;;5063036;28;20048;-80
2022/05/10 08:37:37;;;;;;;12.35;6.60;;;19.10;99.90;;;;;;5052455;28;20048;-83
2022/05/10 08:40:10;;;;;;;10.75;6.15;;;19.10;99.90;;;;;;5047064;28;20092;-83
2022/05/10 08:42:47;;;;;;;9.80;6.78;;;19.10;99.90;;;;;;5047201;28;20049;-78
2022/05/10 08:45:13;;;;;;;8.18;5.90;;;19.10;99.90;;;;;;5047732;28;20049;-80
2022/05/10 08:47:42;;;;;;;9.85;6.13;;;19.10;99.90;;;;;;5063172;28;20045;-82
2022/05/10 08:50:12;;;;;;;9.40;6.00;;;19.20;99.90;;;;;;5025460;28;20045;-80
2022/05/10 08:52:45;;;;;;;8.30;6.00;;;19.30;99.90;;;;;;5044500;28;20042;-83
2022/05/10 08:55:15;;;;;;;9.98;6.55;;;19.40;99.90;;;;;;5046293;28;20383;-77
2022/05/10 08:57:56;;;;;;;9.60;6.18;;;19.50;99.90;;;;;;5080096;28;20049;-82
2022/05/10 09:00:30;;;;;;;9.90;5.72;;;19.60;99.90;;;;;;5047589;28;20574;-80
2022/05/10 09:02:57;;;;;;;10.85;6.32;;;19.90;99.90;;;;;;5031624;28;20052;-82
2022/05/10 09:05:36;;;;;;;8.70;6.10;;;20.00;99.90;;;;;;5081096;28;20076;-81
2022/05/10 09:08:14;;;;;;;11.65;5.90;;;20.20;99.90;;;;;;5040304;28;20048;-82
2022/05/10 09:11:04;;;;;;;10.07;5.80;;;20.30;99.90;;;;;;5029822;28;20056;-82
2022/05/10 09:13:30;;;;;;;10.02;6.32;;;20.40;99.90;;;;;;5047155;28;20045;-84
2022/05/10 09:16:05;;;;;;;11.32;6.35;;;20.40;99.90;;;;;;5009462;28;20552;-79
2022/05/10 09:18:40;;;;;;;6.85;5.40;;;20.50;99.90;;;;;;5046673;28;20128;-82
2022/05/10 09:21:11;;;;;;;9.95;6.00;;;20.50;99.90;;;;;;5082781;28;20476;-82
2022/05/10 09:23:43;;;;;;;10.20;6.50;;;20.50;99.90;;;;;;5047605;28;20256;-81
2022/05/10 09:26:12;;;;;;;10.88;6.88;;;20.50;99.90;;;;;;5081840;28;20048;-82
2022/05/10 09:28:56;;;;;;;9.02;5.90;;;20.50;99.90;;;;;;5030365;28;20052;-83
2022/05/10 09:37:26;;;;;;;10.52;6.15;;;20.40;99.90;;;;;;5035516;28;20053;-82
2022/05/10 09:40:00;;;;;;;10.02;6.40;;;20.40;99.90;;;;;;5027111;28;20551;-84
2022/05/10 09:42:38;;;;;;;10.05;6.15;;;20.40;99.90;;;;;;5042880;28;20569;-84
2022/05/10 09:45:07;;;;;;;10.65;6.70;;;20.30;99.90;;;;;;5046121;28;20045;-83
2022/05/10 09:47:33;;;;;;;10.50;6.65;;;20.10;99.90;;;;;;5063677;28;20398;-87
2022/05/10 09:50:19;;;;;;;9.38;6.60;;;19.40;99.90;;;;;;5046170;28;20053;-85
2022/05/10 09:52:46;;;;;;;8.50;5.90;;;20.00;99.90;;;;;;5026308;28;20056;-86
2022/05/10 09:55:28;;;;;;;8.00;4.63;;;19.80;99.90;;;;;;5047366;28;20045;-85
2022/05/10 09:57:57;;;;;;;8.32;4.30;;;19.80;99.90;;;;;;5029574;28;20047;-85
2022/05/10 10:00:42;;;;;;;7.88;3.92;;;19.70;99.90;;;;;;5031192;28;20049;-86
2022/05/10 10:03:08;;;;;;;7.60;4.00;;;19.70;99.90;;;;;;5034181;28;20053;-89
2022/05/10 10:05:36;;;;;;;6.30;3.80;;;19.60;99.90;;;;;;5050608;28;20108;-85
2022/05/10 10:08:03;;;;;;;9.93;4.03;;;19.60;99.90;;;;;;5047935;28;20593;-89
2022/05/10 10:10:31;;;;;;;9.05;3.97;;;19.60;99.90;;;;;;5063735;28;20049;-87
2022/05/10 10:12:58;;;;;;;8.13;4.53;;;19.60;99.90;;;;;;5066311;28;20057;-85
2022/05/10 10:15:36;;;;;;;6.85;4.22;;;19.60;99.90;;;;;;5048114;28;20053;-86
2022/05/10 10:18:06;;;;;;;11.85;4.10;;;19.50;99.90;;;;;;5033375;28;20087;-87
2022/05/10 10:20:47;;;;;;;8.57;3.80;;;19.50;99.90;;;;;;5054669;28;20053;-86
2022/05/10 10:23:25;;;;;;;10.98;3.80;;;19.40;99.90;;;;;;5087582;28;20041;-88
2022/05/10 10:25:55;;;;;;;7.97;3.47;;;19.50;99.90;;;;;;5057241;28;20076;-86
2022/05/10 10:28:33;;;;;;;11.45;3.75;;;19.50;99.90;;;;;;5043089;28;20040;-85
2022/05/10 10:31:14;;;;;;;8.63;3.50;;;19.60;99.90;;;;;;5039020;28;20092;-86
2022/05/10 10:34:10;;;;;;;8.00;3.53;;;19.80;99.90;;;;;;5031795;28;20055;-87
2022/05/10 10:37:04;;;;;;;6.20;3.35;;;19.90;99.90;;;;;;5031563;28;20040;-86
2022/05/10 10:39:52;;;;;;;6.65;3.00;;;20.10;99.90;;;;;;5038684;28;20060;-85
2022/05/10 10:42:39;;;;;;;7.97;2.85;;;20.00;99.90;;;;;;5071113;28;20498;-85
2022/05/10 10:45:08;;;;;;;;;;;20.10;99.90;;;;;;5042869;28;20052;-87
2022/05/10 10:47:40;;;;;;;7.75;3.00;;;20.00;99.90;;;;;;5050317;28;20369;-82
2022/05/10 10:50:29;;;;;;;7.22;3.42;;;20.00;99.90;;;;;;5031126;28;20052;-83
2022/05/10 10:52:57;;;;;;;9.30;3.03;;;20.00;99.90;;;;;;5063751;28;20045;-82
2022/05/10 10:55:59;;;;;;;6.55;2.63;;;20.00;99.90;;;;;;5033712;28;20160;-82
2022/05/10 10:59:11;;;;;;;4.93;2.70;;;20.00;99.90;;;;;;5049597;28;20056;-86
2022/05/10 11:02:20;;;;;;;4.88;2.67;;;19.90;99.90;;;;;;5071108;28;20049;-82
2022/05/10 11:04:55;;;;;;;5.47;2.50;;;19.80;99.90;;;;;;5090109;28;20095;-82
2022/05/10 11:07:35;;;;;;;5.70;2.55;;;19.70;99.90;;;;;;5033166;28;20044;-81
2022/05/10 11:10:23;;;;;;;6.82;2.75;;;19.80;99.90;;;;;;5049933;28;20049;-81
2022/05/10 11:12:59;;;;;;;7.97;3.03;;;19.70;99.90;;;;;;5050045;28;20102;-83
2022/05/10 11:15:30;;;;;;;6.50;2.90;;;19.70;99.90;;;;;;5049919;28;20045;-83
2022/05/10 11:18:07;;;;;;;5.15;2.75;;;19.70;99.90;;;;;;5033580;28;20144;-81
2022/05/10 11:21:07;;;;;;;8.10;2.90;;;19.60;99.90;;;;;;5043038;28;20048;-82
2022/05/10 11:23:53;;;;;;;6.50;3.13;;;19.60;99.90;;;;;;5065989;28;20241;-83
2022/05/10 11:26:18;;;;;;;;;;;19.40;99.90;;;;;;5032414;28;20406;-82
2022/05/10 11:28:54;;;;;;;7.68;3.17;;;19.30;99.90;;;;;;5066273;28;20411;-83
2022/05/10 11:31:39;;;;;;;7.00;2.92;;;19.20;99.90;;;;;;5048323;28;20068;-83
2022/05/10 11:34:20;;;;;;;6.95;3.15;;;19.20;99.90;;;;;;5041797;28;20168;-83
2022/05/10 11:36:51;;;;;;;9.93;2.80;;;19.10;99.90;;;;;;5065889;28;20041;-83
2022/05/10 11:39:47;;;;;;;8.60;3.13;;;19.20;99.90;;;;;;5084933;28;21620;-83
2022/05/10 11:42:34;;;;;;;6.47;2.80;;;19.20;99.90;;;;;;5048536;28;20061;-82
2022/05/10 11:45:34;;;;;;;5.97;2.90;;;19.30;99.90;;;;;;5026457;28;20202;-82
2022/05/10 11:48:25;;;;;;;6.05;2.65;;;19.40;99.90;;;;;;5029825;28;20056;-83
2022/05/10 11:51:44;;;;;;;6.53;2.60;;;19.40;99.90;;;;;;5046930;28;20036;-80
2022/05/10 11:54:31;;;;;;;10.80;3.28;;;19.20;99.90;;;;;;5038898;28;20428;-84
2022/05/10 11:56:58;;;;;;;7.47;3.00;;;19.10;99.90;;;;;;5031805;28;20041;-80
2022/05/10 11:59:27;;;;;;;5.80;3.22;;;18.90;99.90;;;;;;5025119;28;20058;-84
2022/05/10 12:01:57;;;;;;;6.72;3.30;;;18.80;99.90;;;;;;5031969;28;20045;-83
2022/05/10 12:04:32;;;;;;;7.32;3.00;;;18.70;99.90;;;;;;5049833;28;20045;-82
2022/05/10 12:07:24;;;;;;;8.15;3.08;;;18.60;99.90;;;;;;5047671;28;20076;-82
2022/05/10 12:10:00;;;;;;;7.13;2.90;;;18.50;99.90;;;;;;5048380;28;20144;-84
2022/05/10 12:12:34;;;;;;;5.03;2.55;;;18.40;99.90;;;;;;5057637;28;20045;-82
2022/05/10 12:21:22;;;;;;;7.68;2.90;;;18.30;99.90;;;;;;5078414;28;20505;-81
2022/05/10 12:24:19;;;;;;;6.30;3.00;;;18.30;99.90;;;;;;5045199;28;20045;-78
2022/05/10 12:26:50;;;;;;;7.40;2.75;;;18.30;99.90;;;;;;5043699;28;20044;-82
2022/05/10 12:29:37;;;;;;;6.75;3.17;;;18.40;99.90;;;;;;5030322;28;20056;-82
2022/05/10 12:32:31;;;;;;;6.35;2.90;;;18.40;99.90;;;;;;5030900;28;20057;-84
2022/05/10 12:35:04;;;;;;;5.53;2.70;;;18.30;99.90;;;;;;5044879;28;20044;-81
2022/05/10 12:37:51;;;;;;;6.88;2.90;;;18.20;99.90;;;;;;5032572;28;20041;-82
2022/05/10 12:40:19;;;;;;;5.13;2.78;;;18.10;99.90;;;;;;5065318;28;20056;-83
2022/05/10 12:43:28;;;;;;;6.57;3.03;;;17.90;99.90;;;;;;5023579;28;20057;-81
2022/05/10 12:45:59;;;;;;;7.13;3.00;;;17.80;99.90;;;;;;5061113;28;20048;-82
2022/05/10 12:49:09;;;;;;;6.70;2.80;;;17.80;99.90;;;;;;5026556;28;20048;-83
2022/05/10 12:52:10;;;;;;;6.05;3.13;;;17.70;99.90;;;;;;5036203;28;20045;-84
2022/05/10 12:54:44;;;;;;;9.02;3.10;;;17.60;99.90;;;;;;5028297;28;20044;-84
2022/05/10 12:57:28;;;;;;;7.63;2.95;;;17.60;99.90;;;;;;5076979;28;20509;-81
2022/05/10 13:00:22;;;;;;;7.20;2.75;;;17.50;99.90;;;;;;5041178;28;20049;-84
2022/05/10 13:03:11;;;;;;;6.28;2.63;;;17.50;99.90;;;;;;5028838;28;20134;-82
2022/05/10 13:06:01;;;;;;;7.97;3.20;;;17.40;99.90;;;;;;5036642;28;20053;-83
2022/05/10 13:08:34;;;;;;;7.50;2.92;;;17.40;99.90;;;;;;5047463;28;20060;-84
2022/05/10 13:11:00;;;;;;;6.60;2.50;;;17.40;99.90;;;;;;5028883;28;20307;-83
2022/05/10 13:13:32;;;;;;;10.63;3.22;;;17.40;99.90;;;;;;5046583;28;20130;-80
2022/05/10 13:16:01;;;;;;;7.80;3.05;;;17.40;99.90;;;;;;5027242;28;20216;-81
2022/05/10 13:18:29;;;;;;;7.97;3.00;;;17.40;99.90;;;;;;5047296;28;20503;-82
2022/05/10 13:21:02;;;;;;;8.02;2.78;;;17.30;99.90;;;;;;5086888;28;20087;-83
2022/05/10 13:23:31;;;;;;;6.35;3.15;;;17.30;99.90;;;;;;5052650;28;20081;-82
2022/05/10 13:26:08;;;;;;;8.95;2.63;;;17.30;99.90;;;;;;5026064;28;20151;-79
2022/05/10 13:28:51;;;;;;;9.20;3.60;;;17.30;99.90;;;;;;5077682;28;20052;-83
2022/05/10 13:31:21;;;;;;;6.30;2.88;;;17.30;99.90;;;;;;5058902;28;20049;-83
2022/05/10 13:33:48;;;;;;;7.72;2.80;;;17.20;99.90;;;;;;5060710;28;20076;-81